sensor_id;sensor_type;location;lat;lon;timestamp;pressure;altitude;pressure_sealevel;temperature;humidity
3178;BME280;38141;42.666;23.344;2023-05-23T00:02:26;94543.03;;;12.54;100.00
3178;BME280;38141;42.666;23.344;2023-05-23T00:04:54;94519.88;;;12.42;100.00
3178;BME280;38141;42.666;23.344;2023-05-23T00:07:22;94513.34;;;12.33;100.00
3178;BME280;38141;42.666;23.344;2023-05-23T00:09:52;94530.25;;;12.58;100.00
3178;BME280;38141;42.666;23.344;2023-05-23T00:12:18;94560.38;;;12.71;100.00
3178;BME280;38141;42.666;23.344;2023-05-23T00:14:45;94551.81;;;12.76;100.00
3178;BME280;38141;42.666;23.344;2023-05-23T00:17:12;94512.09;;;12.48;100.00
3178;BME280;38141;42.666;23.344;2023-05-23T00:19:39;94496.25;;;12.39;100.00
3178;BME280;38141;42.666;23.344;2023-05-23T00:22:10;94407.56;;;11.71;100.00
3178;BME280;38141;42.666;23.344;2023-05-23T00:24:37;94493.25;;;12.23;100.00
3178;BME280;38141;42.666;23.344;2023-05-23T00:27:05;94417.25;;;11.75;100.00
3178;BME280;38141;42.666;23.344;2023-05-23T00:29:32;94518.31;;;12.41;100.00
3178;BME280;38141;42.666;23.344;2023-05-23T00:31:59;94464.03;;;11.90;100.00
3178;BME280;38141;42.666;23.344;2023-05-23T00:34:26;94533.44;;;12.42;100.00
3178;BME280;38141;42.666;23.344;2023-05-23T00:36:56;94517.63;;;12.27;100.00
3178;BME280;38141;42.666;23.344;2023-05-23T00:39:22;94551.88;;;12.65;100.00
3178;BME280;38141;42.666;23.344;2023-05-23T00:41:49;94522.19;;;12.40;100.00
3178;BME280;38141;42.666;23.344;2023-05-23T00:44:18;94541.06;;;12.62;100.00
3178;BME280;38141;42.666;23.344;2023-05-23T00:46:47;94448.50;;;11.90;100.00
3178;BME280;38141;42.666;23.344;2023-05-23T00:49:15;94495.09;;;12.37;100.00
3178;BME280;38141;42.666;23.344;2023-05-23T00:51:44;94459.34;;;11.94;100.00
3178;BME280;38141;42.666;23.344;2023-05-23T00:54:12;94434.28;;;11.76;100.00
3178;BME280;38141;42.666;23.344;2023-05-23T00:56:40;94536.63;;;12.30;100.00
3178;BME280;38141;42.666;23.344;2023-05-23T00:59:08;94533.03;;;12.47;100.00
3178;BME280;38141;42.666;23.344;2023-05-23T01:01:36;94505.19;;;12.33;100.00
3178;BME280;38141;42.666;23.344;2023-05-23T01:04:03;94540.81;;;12.38;100.00
3178;BME280;38141;42.666;23.344;2023-05-23T01:06:30;94544.00;;;12.26;100.00
3178;BME280;38141;42.666;23.344;2023-05-23T01:08:58;94543.75;;;12.03;100.00
3178;BME280;38141;42.666;23.344;2023-05-23T01:11:34;94544.47;;;12.11;100.00
3178;BME280;38141;42.666;23.344;2023-05-23T01:14:08;94547.59;;;12.06;100.00
3178;BME280;38141;42.666;23.344;2023-05-23T01:16:40;94533.28;;;12.01;100.00
3178;BME280;38141;42.666;23.344;2023-05-23T01:19:30;94542.16;;;12.06;100.00
3178;BME280;38141;42.666;23.344;2023-05-23T01:22:10;94498.16;;;11.73;100.00
3178;BME280;38141;42.666;23.344;2023-05-23T01:24:44;94463.81;;;11.49;100.00
3178;BME280;38141;42.666;23.344;2023-05-23T01:27:23;94542.56;;;12.00;100.00
3178;BME280;38141;42.666;23.344;2023-05-23T01:29:56;94471.50;;;11.54;100.00
3178;BME280;38141;42.666;23.344;2023-05-23T01:32:24;94542.13;;;12.16;100.00
3178;BME280;38141;42.666;23.344;2023-05-23T01:34:53;94549.09;;;12.17;100.00
3178;BME280;38141;42.666;23.344;2023-05-23T01:37:20;94544.06;;;12.09;100.00
3178;BME280;38141;42.666;23.344;2023-05-23T01:39:47;94549.56;;;11.98;100.00
3178;BME280;38141;42.666;23.344;2023-05-23T01:42:14;94545.69;;;12.02;100.00
3178;BME280;38141;42.666;23.344;2023-05-23T01:44:43;94428.31;;;11.26;100.00
3178;BME280;38141;42.666;23.344;2023-05-23T01:47:12;94453.44;;;11.26;100.00
3178;BME280;38141;42.666;23.344;2023-05-23T01:49:40;94478.50;;;11.51;100.00
3178;BME280;38141;42.666;23.344;2023-05-23T01:52:09;94524.03;;;11.92;100.00
3178;BME280;38141;42.666;23.344;2023-05-23T01:54:36;94526.69;;;12.02;100.00
3178;BME280;38141;42.666;23.344;2023-05-23T01:57:06;94514.41;;;11.77;100.00
3178;BME280;38141;42.666;23.344;2023-05-23T01:59:33;94537.97;;;11.87;100.00
3178;BME280;38141;42.666;23.344;2023-05-23T02:02:00;94533.00;;;11.75;100.00
3178;BME280;38141;42.666;23.344;2023-05-23T02:04:28;94375.88;;;10.63;100.00
3178;BME280;38141;42.666;23.344;2023-05-23T02:06:56;94396.75;;;10.66;100.00
3178;BME280;38141;42.666;23.344;2023-05-23T02:09:22;94518.69;;;11.64;100.00
3178;BME280;38141;42.666;23.344;2023-05-23T02:11:49;94429.94;;;10.91;100.00
3178;BME280;38141;42.666;23.344;2023-05-23T02:14:16;94515.59;;;11.65;100.00
3178;BME280;38141;42.666;23.344;2023-05-23T02:16:44;94523.72;;;11.69;100.00
3178;BME280;38141;42.666;23.344;2023-05-23T02:19:10;94516.75;;;11.71;100.00
3178;BME280;38141;42.666;23.344;2023-05-23T02:21:38;94514.03;;;11.78;100.00
3178;BME280;38141;42.666;23.344;2023-05-23T02:24:06;94493.59;;;11.49;100.00
3178;BME280;38141;42.666;23.344;2023-05-23T02:26:32;94488.97;;;11.42;100.00
3178;BME280;38141;42.666;23.344;2023-05-23T02:28:59;94479.69;;;11.36;100.00
3178;BME280;38141;42.666;23.344;2023-05-23T02:31:26;94532.19;;;11.81;100.00
3178;BME280;38141;42.666;23.344;2023-05-23T02:33:53;94504.38;;;11.59;100.00
3178;BME280;38141;42.666;23.344;2023-05-23T02:36:20;94534.13;;;11.88;100.00
3178;BME280;38141;42.666;23.344;2023-05-23T02:38:48;94524.03;;;11.92;100.00
3178;BME280;38141;42.666;23.344;2023-05-23T02:41:15;94517.84;;;11.91;100.00
3178;BME280;38141;42.666;23.344;2023-05-23T02:43:44;94447.97;;;11.44;100.00
3178;BME280;38141;42.666;23.344;2023-05-23T02:46:11;94472.69;;;11.49;100.00
3178;BME280;38141;42.666;23.344;2023-05-23T02:48:39;94520.00;;;12.18;100.00
3178;BME280;38141;42.666;23.344;2023-05-23T02:51:06;94511.91;;;12.14;100.00
3178;BME280;38141;42.666;23.344;2023-05-23T02:53:32;94485.75;;;11.83;100.00
3178;BME280;38141;42.666;23.344;2023-05-23T02:56:00;94531.28;;;12.13;100.00
3178;BME280;38141;42.666;23.344;2023-05-23T02:58:27;94462.53;;;11.71;100.00
3178;BME280;38141;42.666;23.344;2023-05-23T03:00:55;94409.78;;;11.17;100.00
3178;BME280;38141;42.666;23.344;2023-05-23T03:03:21;94505.88;;;11.82;100.00
3178;BME280;38141;42.666;23.344;2023-05-23T03:05:48;94534.44;;;12.00;100.00
3178;BME280;38141;42.666;23.344;2023-05-23T03:08:15;94532.88;;;11.99;100.00
3178;BME280;38141;42.666;23.344;2023-05-23T03:10:42;94503.75;;;12.18;100.00
3178;BME280;38141;42.666;23.344;2023-05-23T03:13:12;94482.88;;;12.11;100.00
3178;BME280;38141;42.666;23.344;2023-05-23T03:15:38;94446.91;;;12.00;100.00
3178;BME280;38141;42.666;23.344;2023-05-23T03:18:05;94528.38;;;12.48;100.00
3178;BME280;38141;42.666;23.344;2023-05-23T03:20:32;94519.81;;;12.49;100.00
3178;BME280;38141;42.666;23.344;2023-05-23T03:22:59;94507.19;;;12.25;100.00
3178;BME280;38141;42.666;23.344;2023-05-23T03:25:26;94527.97;;;12.46;100.00
3178;BME280;38141;42.666;23.344;2023-05-23T03:27:53;94458.94;;;11.99;100.00
3178;BME280;38141;42.666;23.344;2023-05-23T03:30:21;94501.56;;;12.57;100.00
3178;BME280;38141;42.666;23.344;2023-05-23T03:32:48;94534.13;;;12.57;100.00
3178;BME280;38141;42.666;23.344;2023-05-23T03:35:15;94477.88;;;12.06;100.00
3178;BME280;38141;42.666;23.344;2023-05-23T03:37:42;94556.28;;;12.45;100.00
3178;BME280;38141;42.666;23.344;2023-05-23T03:40:09;94519.91;;;12.39;100.00
3178;BME280;38141;42.666;23.344;2023-05-23T03:42:37;94529.94;;;12.42;100.00
3178;BME280;38141;42.666;23.344;2023-05-23T03:45:05;94533.69;;;12.59;100.00
3178;BME280;38141;42.666;23.344;2023-05-23T03:47:33;94430.16;;;12.16;100.00
3178;BME280;38141;42.666;23.344;2023-05-23T03:50:00;94553.66;;;12.86;100.00
3178;BME280;38141;42.666;23.344;2023-05-23T03:52:27;94451.78;;;12.23;100.00
3178;BME280;38141;42.666;23.344;2023-05-23T03:54:54;94484.72;;;12.76;100.00
3178;BME280;38141;42.666;23.344;2023-05-23T03:57:21;94447.88;;;12.31;100.00
3178;BME280;38141;42.666;23.344;2023-05-23T03:59:48;94572.91;;;13.06;100.00
3178;BME280;38141;42.666;23.344;2023-05-23T04:02:15;94475.00;;;12.31;100.00
3178;BME280;38141;42.666;23.344;2023-05-23T04:04:43;94489.06;;;12.67;100.00
3178;BME280;38141;42.666;23.344;2023-05-23T04:07:11;94494.91;;;12.65;100.00
3178;BME280;38141;42.666;23.344;2023-05-23T04:09:39;94561.31;;;13.46;100.00
3178;BME280;38141;42.666;23.344;2023-05-23T04:12:06;94376.47;;;12.41;100.00
3178;BME280;38141;42.666;23.344;2023-05-23T04:14:34;94444.72;;;12.84;100.00
3178;BME280;38141;42.666;23.344;2023-05-23T04:17:01;94521.84;;;13.34;100.00
3178;BME280;38141;42.666;23.344;2023-05-23T04:19:28;94527.72;;;13.67;100.00
3178;BME280;38141;42.666;23.344;2023-05-23T04:21:57;94482.22;;;13.37;100.00
3178;BME280;38141;42.666;23.344;2023-05-23T04:24:23;94541.66;;;13.69;100.00
3178;BME280;38141;42.666;23.344;2023-05-23T04:26:50;94489.44;;;13.17;100.00
3178;BME280;38141;42.666;23.344;2023-05-23T04:29:20;94506.81;;;13.23;100.00
3178;BME280;38141;42.666;23.344;2023-05-23T04:31:49;94482.91;;;13.07;100.00
3178;BME280;38141;42.666;23.344;2023-05-23T04:34:16;94488.72;;;13.06;100.00
3178;BME280;38141;42.666;23.344;2023-05-23T04:36:43;94533.78;;;13.44;100.00
3178;BME280;38141;42.666;23.344;2023-05-23T04:39:11;94515.25;;;13.32;100.00
3178;BME280;38141;42.666;23.344;2023-05-23T04:41:38;94496.97;;;13.36;100.00
3178;BME280;38141;42.666;23.344;2023-05-23T04:44:05;94505.25;;;13.59;100.00
3178;BME280;38141;42.666;23.344;2023-05-23T04:46:34;94485.50;;;13.21;100.00
3178;BME280;38141;42.666;23.344;2023-05-23T04:49:01;94486.66;;;13.20;100.00
3178;BME280;38141;42.666;23.344;2023-05-23T04:51:28;94465.09;;;13.03;100.00
3178;BME280;38141;42.666;23.344;2023-05-23T04:53:56;94463.00;;;13.21;100.00
3178;BME280;38141;42.666;23.344;2023-05-23T04:56:25;94542.28;;;13.46;100.00
3178;BME280;38141;42.666;23.344;2023-05-23T04:58:55;94519.41;;;13.44;100.00
3178;BME280;38141;42.666;23.344;2023-05-23T05:01:22;94574.50;;;13.85;100.00
3178;BME280;38141;42.666;23.344;2023-05-23T05:03:49;94571.84;;;13.78;100.00
3178;BME280;38141;42.666;23.344;2023-05-23T05:06:16;94495.03;;;13.36;100.00
3178;BME280;38141;42.666;23.344;2023-05-23T05:08:45;94585.56;;;14.01;100.00
3178;BME280;38141;42.666;23.344;2023-05-23T05:11:12;94514.97;;;13.60;100.00
3178;BME280;38141;42.666;23.344;2023-05-23T05:13:41;94382.91;;;12.61;100.00
3178;BME280;38141;42.666;23.344;2023-05-23T05:16:08;94580.97;;;13.95;100.00
3178;BME280;38141;42.666;23.344;2023-05-23T05:18:35;94586.56;;;13.84;100.00
3178;BME280;38141;42.666;23.344;2023-05-23T05:21:02;94452.09;;;13.24;100.00
3178;BME280;38141;42.666;23.344;2023-05-23T05:23:30;94581.53;;;14.13;100.00
3178;BME280;38141;42.666;23.344;2023-05-23T05:25:57;94598.78;;;14.03;100.00
3178;BME280;38141;42.666;23.344;2023-05-23T05:35:20;94606.19;;;14.33;100.00
3178;BME280;38141;42.666;23.344;2023-05-23T05:37:47;94546.16;;;14.47;100.00
3178;BME280;38141;42.666;23.344;2023-05-23T05:40:15;94519.75;;;14.13;100.00
3178;BME280;38141;42.666;23.344;2023-05-23T05:42:48;94392.88;;;13.43;100.00
3178;BME280;38141;42.666;23.344;2023-05-23T05:45:15;94492.94;;;13.81;100.00
3178;BME280;38141;42.666;23.344;2023-05-23T05:47:43;94592.59;;;14.90;100.00
3178;BME280;38141;42.666;23.344;2023-05-23T05:50:11;94602.22;;;15.21;100.00
3178;BME280;38141;42.666;23.344;2023-05-23T05:52:39;94484.81;;;15.12;100.00
3178;BME280;38141;42.666;23.344;2023-05-23T05:55:08;94580.97;;;15.59;100.00
3178;BME280;38141;42.666;23.344;2023-05-23T05:57:35;94565.53;;;15.92;100.00
3178;BME280;38141;42.666;23.344;2023-05-23T06:00:05;94481.56;;;15.40;100.00
3178;BME280;38141;42.666;23.344;2023-05-23T06:02:37;94563.28;;;15.67;100.00
3178;BME280;38141;42.666;23.344;2023-05-23T06:05:05;94594.53;;;16.06;100.00
3178;BME280;38141;42.666;23.344;2023-05-23T06:07:35;94451.22;;;14.95;100.00
3178;BME280;38141;42.666;23.344;2023-05-23T06:10:02;94549.13;;;15.29;100.00
3178;BME280;38141;42.666;23.344;2023-05-23T06:12:29;94458.06;;;14.84;100.00
3178;BME280;38141;42.666;23.344;2023-05-23T06:14:56;94568.22;;;15.76;100.00
3178;BME280;38141;42.666;23.344;2023-05-23T06:17:31;94575.91;;;16.00;100.00
3178;BME280;38141;42.666;23.344;2023-05-23T06:19:58;94566.78;;;16.27;100.00
3178;BME280;38141;42.666;23.344;2023-05-23T06:22:25;94560.22;;;16.80;100.00
3178;BME280;38141;42.666;23.344;2023-05-23T06:24:53;94590.25;;;18.63;100.00
3178;BME280;38141;42.666;23.344;2023-05-23T06:27:20;94586.84;;;20.82;100.00
3178;BME280;38141;42.666;23.344;2023-05-23T06:29:47;94591.75;;;21.67;94.14
3178;BME280;38141;42.666;23.344;2023-05-23T06:32:14;94590.19;;;23.02;73.77
3178;BME280;38141;42.666;23.344;2023-05-23T06:34:41;94596.66;;;25.54;59.84
3178;BME280;38141;42.666;23.344;2023-05-23T06:37:07;94579.47;;;25.85;54.45
3178;BME280;38141;42.666;23.344;2023-05-23T06:39:34;94552.44;;;26.20;51.16
3178;BME280;38141;42.666;23.344;2023-05-23T06:42:03;94556.84;;;25.02;54.99
3178;BME280;38141;42.666;23.344;2023-05-23T06:44:29;94583.97;;;26.89;51.85
3178;BME280;38141;42.666;23.344;2023-05-23T06:46:59;94554.56;;;27.08;51.27
3178;BME280;38141;42.666;23.344;2023-05-23T06:49:26;94572.56;;;30.24;43.14
3178;BME280;38141;42.666;23.344;2023-05-23T06:51:53;94585.34;;;28.91;46.76
3178;BME280;38141;42.666;23.344;2023-05-23T06:54:20;94585.13;;;29.39;44.84
3178;BME280;38141;42.666;23.344;2023-05-23T06:56:47;94572.22;;;29.25;43.54
3178;BME280;38141;42.666;23.344;2023-05-23T06:59:15;94569.66;;;29.10;43.24
3178;BME280;38141;42.666;23.344;2023-05-23T07:01:42;94583.34;;;29.20;44.34
3178;BME280;38141;42.666;23.344;2023-05-23T07:04:08;94571.69;;;30.92;41.32
3178;BME280;38141;42.666;23.344;2023-05-23T07:06:37;94453.31;;;29.61;40.99
3178;BME280;38141;42.666;23.344;2023-05-23T07:09:05;94480.72;;;28.35;43.65
3178;BME280;38141;42.666;23.344;2023-05-23T07:11:34;94522.44;;;28.40;43.84
3178;BME280;38141;42.666;23.344;2023-05-23T07:14:03;94586.84;;;29.76;42.45
3178;BME280;38141;42.666;23.344;2023-05-23T07:16:33;94579.81;;;27.73;46.32
3178;BME280;38141;42.666;23.344;2023-05-23T07:19:00;94545.28;;;27.91;45.52
3178;BME280;38141;42.666;23.344;2023-05-23T07:21:27;94567.59;;;27.59;46.44
3178;BME280;38141;42.666;23.344;2023-05-23T07:23:54;94525.31;;;27.92;45.89
3178;BME280;38141;42.666;23.344;2023-05-23T07:26:21;94560.72;;;27.49;46.71
3178;BME280;38141;42.666;23.344;2023-05-23T07:28:47;94441.44;;;26.72;46.77
3178;BME280;38141;42.666;23.344;2023-05-23T07:31:14;94502.91;;;26.59;48.16
3178;BME280;38141;42.666;23.344;2023-05-23T07:33:43;94549.91;;;26.68;48.41
3178;BME280;38141;42.666;23.344;2023-05-23T07:36:10;94528.09;;;26.30;49.53
3178;BME280;38141;42.666;23.344;2023-05-23T07:38:37;94528.53;;;26.74;49.24
3178;BME280;38141;42.666;23.344;2023-05-23T07:41:03;94548.78;;;26.54;49.23
3178;BME280;38141;42.666;23.344;2023-05-23T07:43:30;94544.31;;;26.37;50.80
3178;BME280;38141;42.666;23.344;2023-05-23T07:45:57;94539.25;;;26.35;50.03
3178;BME280;38141;42.666;23.344;2023-05-23T07:48:23;94511.25;;;26.33;49.97
3178;BME280;38141;42.666;23.344;2023-05-23T07:50:52;94542.66;;;26.76;49.31
3178;BME280;38141;42.666;23.344;2023-05-23T07:53:20;94543.31;;;26.40;49.53
3178;BME280;38141;42.666;23.344;2023-05-23T07:55:47;94538.19;;;26.12;51.10
3178;BME280;38141;42.666;23.344;2023-05-23T07:58:13;94542.00;;;25.19;54.56
3178;BME280;38141;42.666;23.344;2023-05-23T08:00:40;94528.78;;;24.65;56.88
3178;BME280;38141;42.666;23.344;2023-05-23T08:03:08;94515.31;;;25.37;53.63
3178;BME280;38141;42.666;23.344;2023-05-23T08:05:36;94510.34;;;25.06;55.72
3178;BME280;38141;42.666;23.344;2023-05-23T08:08:04;94535.63;;;24.84;56.20
3178;BME280;38141;42.666;23.344;2023-05-23T08:10:30;94514.44;;;24.81;56.26
3178;BME280;38141;42.666;23.344;2023-05-23T08:12:58;94519.59;;;25.38;55.18
3178;BME280;38141;42.666;23.344;2023-05-23T08:15:28;94530.28;;;24.95;58.53
3178;BME280;38141;42.666;23.344;2023-05-23T08:17:55;94519.31;;;24.86;58.58
3178;BME280;38141;42.666;23.344;2023-05-23T08:20:23;94509.56;;;25.40;56.67
3178;BME280;38141;42.666;23.344;2023-05-23T08:22:56;94523.13;;;25.03;57.30
3178;BME280;38141;42.666;23.344;2023-05-23T08:25:24;94532.41;;;24.71;58.81
3178;BME280;38141;42.666;23.344;2023-05-23T08:27:54;94496.91;;;24.25;61.91
3178;BME280;38141;42.666;23.344;2023-05-23T08:30:21;94531.91;;;24.43;59.89
3178;BME280;38141;42.666;23.344;2023-05-23T08:32:50;94533.91;;;24.04;63.16
3178;BME280;38141;42.666;23.344;2023-05-23T08:35:17;94527.94;;;23.82;64.50
3178;BME280;38141;42.666;23.344;2023-05-23T08:37:43;94533.72;;;24.08;61.57
3178;BME280;38141;42.666;23.344;2023-05-23T08:40:13;94513.63;;;24.07;62.34
3178;BME280;38141;42.666;23.344;2023-05-23T08:42:42;94513.22;;;24.38;60.75
3178;BME280;38141;42.666;23.344;2023-05-23T08:45:10;94506.78;;;25.40;60.08
3178;BME280;38141;42.666;23.344;2023-05-23T08:47:43;94514.06;;;26.39;55.90
3178;BME280;38141;42.666;23.344;2023-05-23T08:50:11;94510.81;;;26.72;53.90
3178;BME280;38141;42.666;23.344;2023-05-23T08:52:42;94504.63;;;26.82;52.36
3178;BME280;38141;42.666;23.344;2023-05-23T08:55:10;94518.22;;;26.80;50.41
3178;BME280;38141;42.666;23.344;2023-05-23T08:57:37;94516.59;;;27.31;50.26
3178;BME280;38141;42.666;23.344;2023-05-23T09:00:11;94511.56;;;27.29;51.25
3178;BME280;38141;42.666;23.344;2023-05-23T09:02:39;94516.78;;;28.07;47.75
3178;BME280;38141;42.666;23.344;2023-05-23T09:05:08;94513.88;;;28.55;46.21
3178;BME280;38141;42.666;23.344;2023-05-23T09:07:35;94501.31;;;28.00;48.73
3178;BME280;38141;42.666;23.344;2023-05-23T09:10:02;94503.56;;;27.91;48.76
3178;BME280;38141;42.666;23.344;2023-05-23T09:12:31;94515.91;;;28.54;47.39
3178;BME280;38141;42.666;23.344;2023-05-23T09:14:58;94517.16;;;28.53;46.69
3178;BME280;38141;42.666;23.344;2023-05-23T09:17:26;94518.00;;;29.32;44.34
3178;BME280;38141;42.666;23.344;2023-05-23T09:19:53;94507.31;;;30.21;40.63
3178;BME280;38141;42.666;23.344;2023-05-23T09:22:23;94491.13;;;31.02;39.83
3178;BME280;38141;42.666;23.344;2023-05-23T09:24:50;94517.38;;;32.57;37.89
3178;BME280;38141;42.666;23.344;2023-05-23T09:27:18;94496.38;;;31.65;37.43
3178;BME280;38141;42.666;23.344;2023-05-23T09:29:46;94503.13;;;34.22;34.99
3178;BME280;38141;42.666;23.344;2023-05-23T09:32:14;94485.81;;;33.66;32.61
3178;BME280;38141;42.666;23.344;2023-05-23T09:34:54;94491.56;;;34.60;29.70
3178;BME280;38141;42.666;23.344;2023-05-23T09:37:28;94502.56;;;35.25;29.97
3178;BME280;38141;42.666;23.344;2023-05-23T09:39:56;94494.44;;;36.56;28.47
3178;BME280;38141;42.666;23.344;2023-05-23T09:42:23;94492.97;;;35.91;28.59
3178;BME280;38141;42.666;23.344;2023-05-23T09:44:49;94506.03;;;33.90;30.18
3178;BME280;38141;42.666;23.344;2023-05-23T09:47:18;94493.78;;;34.88;28.85
3178;BME280;38141;42.666;23.344;2023-05-23T09:49:53;94496.19;;;36.74;26.58
3178;BME280;38141;42.666;23.344;2023-05-23T09:52:22;94489.97;;;36.68;25.34
3178;BME280;38141;42.666;23.344;2023-05-23T09:54:50;94481.63;;;36.47;26.54
3178;BME280;38141;42.666;23.344;2023-05-23T09:57:18;94453.81;;;36.51;25.96
3178;BME280;38141;42.666;23.344;2023-05-23T09:59:51;94448.03;;;35.85;27.47
3178;BME280;38141;42.666;23.344;2023-05-23T10:02:38;94480.00;;;31.74;29.61
3178;BME280;38141;42.666;23.344;2023-05-23T10:05:26;94464.91;;;31.53;30.15
3178;BME280;38141;42.666;23.344;2023-05-23T10:07:57;94419.66;;;29.37;33.24
3178;BME280;38141;42.666;23.344;2023-05-23T10:10:30;94475.41;;;28.53;34.60
3178;BME280;38141;42.666;23.344;2023-05-23T10:12:58;94473.63;;;29.17;33.79
3178;BME280;38141;42.666;23.344;2023-05-23T10:15:32;94479.69;;;28.32;34.61
3178;BME280;38141;42.666;23.344;2023-05-23T10:18:08;94480.59;;;28.07;34.41
3178;BME280;38141;42.666;23.344;2023-05-23T10:20:39;94450.59;;;27.57;35.95
3178;BME280;38141;42.666;23.344;2023-05-23T10:23:09;94434.75;;;26.27;37.53
3178;BME280;38141;42.666;23.344;2023-05-23T10:25:36;94465.44;;;27.49;36.77
3178;BME280;38141;42.666;23.344;2023-05-23T10:28:03;94465.63;;;26.97;36.63
3178;BME280;38141;42.666;23.344;2023-05-23T10:30:30;94453.47;;;26.32;36.37
3178;BME280;38141;42.666;23.344;2023-05-23T10:32:58;94463.09;;;26.93;36.92
3178;BME280;38141;42.666;23.344;2023-05-23T10:35:35;94430.59;;;26.74;37.38
3178;BME280;38141;42.666;23.344;2023-05-23T10:38:11;94453.38;;;26.00;39.26
3178;BME280;38141;42.666;23.344;2023-05-23T10:40:47;94440.47;;;26.43;37.16
3178;BME280;38141;42.666;23.344;2023-05-23T10:43:21;94456.59;;;27.02;37.31
3178;BME280;38141;42.666;23.344;2023-05-23T10:45:50;94421.78;;;26.44;37.83
3178;BME280;38141;42.666;23.344;2023-05-23T10:48:21;94440.75;;;26.82;36.86
3178;BME280;38141;42.666;23.344;2023-05-23T10:51:03;94438.34;;;26.33;38.67
3178;BME280;38141;42.666;23.344;2023-05-23T10:53:34;94419.09;;;26.24;37.39
3178;BME280;38141;42.666;23.344;2023-05-23T10:56:04;94433.44;;;25.96;38.39
3178;BME280;38141;42.666;23.344;2023-05-23T10:58:32;94395.56;;;25.47;37.95
3178;BME280;38141;42.666;23.344;2023-05-23T11:01:01;94423.91;;;25.37;38.31
3178;BME280;38141;42.666;23.344;2023-05-23T11:03:49;94436.34;;;25.06;38.38
3178;BME280;38141;42.666;23.344;2023-05-23T11:06:29;94431.63;;;25.12;38.69
3178;BME280;38141;42.666;23.344;2023-05-23T11:09:03;94433.63;;;24.92;39.25
3178;BME280;38141;42.666;23.344;2023-05-23T11:11:51;94419.25;;;25.28;39.74
3178;BME280;38141;42.666;23.344;2023-05-23T11:14:19;94417.72;;;25.07;38.44
3178;BME280;38141;42.666;23.344;2023-05-23T11:16:46;94409.06;;;24.50;38.46
3178;BME280;38141;42.666;23.344;2023-05-23T11:19:23;94403.81;;;24.52;39.10
3178;BME280;38141;42.666;23.344;2023-05-23T11:21:56;94424.63;;;24.82;38.74
3178;BME280;38141;42.666;23.344;2023-05-23T11:24:49;94429.19;;;24.35;39.21
3178;BME280;38141;42.666;23.344;2023-05-23T11:27:17;94384.44;;;24.66;40.45
3178;BME280;38141;42.666;23.344;2023-05-23T11:29:59;94413.19;;;24.25;39.83
3178;BME280;38141;42.666;23.344;2023-05-23T11:32:27;94408.88;;;25.03;39.19
3178;BME280;38141;42.666;23.344;2023-05-23T11:35:02;94393.00;;;25.03;39.37
3178;BME280;38141;42.666;23.344;2023-05-23T11:37:31;94384.34;;;24.61;40.37
3178;BME280;38141;42.666;23.344;2023-05-23T11:40:26;94405.84;;;24.86;38.68
3178;BME280;38141;42.666;23.344;2023-05-23T11:42:52;94408.50;;;24.02;39.50
3178;BME280;38141;42.666;23.344;2023-05-23T11:45:20;94399.63;;;24.42;38.95
3178;BME280;38141;42.666;23.344;2023-05-23T11:47:47;94397.09;;;24.73;38.11
3178;BME280;38141;42.666;23.344;2023-05-23T11:50:14;94371.69;;;24.40;39.55
3178;BME280;38141;42.666;23.344;2023-05-23T11:52:41;94391.47;;;25.22;39.07
3178;BME280;38141;42.666;23.344;2023-05-23T11:55:10;94399.88;;;25.48;39.22
3178;BME280;38141;42.666;23.344;2023-05-23T11:57:37;94379.94;;;25.24;39.64
3178;BME280;38141;42.666;23.344;2023-05-23T12:00:06;94390.84;;;25.53;39.86
3178;BME280;38141;42.666;23.344;2023-05-23T12:02:37;94390.19;;;24.83;38.28
3178;BME280;38141;42.666;23.344;2023-05-23T12:05:08;94376.94;;;24.38;39.37
3178;BME280;38141;42.666;23.344;2023-05-23T12:07:35;94386.00;;;24.73;38.83
3178;BME280;38141;42.666;23.344;2023-05-23T12:10:02;94355.13;;;24.95;39.05
3178;BME280;38141;42.666;23.344;2023-05-23T12:12:32;94363.56;;;24.51;39.19
3178;BME280;38141;42.666;23.344;2023-05-23T12:14:59;94356.81;;;24.08;40.15
3178;BME280;38141;42.666;23.344;2023-05-23T12:17:28;94375.91;;;24.20;40.03
3178;BME280;38141;42.666;23.344;2023-05-23T12:19:55;94374.09;;;23.88;39.55
3178;BME280;38141;42.666;23.344;2023-05-23T12:22:22;94347.50;;;24.05;40.81
3178;BME280;38141;42.666;23.344;2023-05-23T12:24:52;94359.75;;;24.48;40.04
3178;BME280;38141;42.666;23.344;2023-05-23T12:27:26;94372.16;;;24.09;40.51
3178;BME280;38141;42.666;23.344;2023-05-23T12:30:03;94350.75;;;23.89;40.08
3178;BME280;38141;42.666;23.344;2023-05-23T12:32:30;94336.84;;;23.83;40.03
3178;BME280;38141;42.666;23.344;2023-05-23T12:34:58;94326.34;;;23.87;39.99
3178;BME280;38141;42.666;23.344;2023-05-23T12:37:25;94352.06;;;24.23;40.78
3178;BME280;38141;42.666;23.344;2023-05-23T12:39:54;94280.59;;;23.86;39.71
3178;BME280;38141;42.666;23.344;2023-05-23T12:42:21;94280.72;;;23.77;40.60
3178;BME280;38141;42.666;23.344;2023-05-23T12:44:50;94296.53;;;23.77;38.75
3178;BME280;38141;42.666;23.344;2023-05-23T12:47:18;94330.03;;;24.14;38.21
3178;BME280;38141;42.666;23.344;2023-05-23T12:49:46;94324.19;;;24.41;38.68
3178;BME280;38141;42.666;23.344;2023-05-23T12:52:13;94292.09;;;24.14;38.35
3178;BME280;38141;42.666;23.344;2023-05-23T12:54:39;94314.66;;;24.42;38.31
3178;BME280;38141;42.666;23.344;2023-05-23T12:57:06;94335.66;;;24.69;38.30
3178;BME280;38141;42.666;23.344;2023-05-23T12:59:33;94339.44;;;24.51;35.46
3178;BME280;38141;42.666;23.344;2023-05-23T13:02:00;94333.94;;;24.36;35.63
3178;BME280;38141;42.666;23.344;2023-05-23T13:04:28;94336.63;;;24.66;36.26
3178;BME280;38141;42.666;23.344;2023-05-23T13:06:55;94293.53;;;24.10;35.59
3178;BME280;38141;42.666;23.344;2023-05-23T13:09:22;94314.72;;;23.83;34.04
3178;BME280;38141;42.666;23.344;2023-05-23T13:11:48;94316.31;;;23.90;35.69